Palmeirante, Brazil
Current Conditions -  °F | °C
As of 12:00 PM on Thursday 23 Oct 2014 (Local Time) from SBIZ Reporting Station
Broken Clouds Broken Clouds  
Wind Chill: 88°   Ceiling: 2500
Heat Index: 94°   Visibility: 6mi
Dew Point: 72°   Wind: 6mph
Humidity: 58%   Direction: 290°WNW
Pressure: 29.91"   Gusts: NA
Location:  7.82°S, 48.15°W
Report Text: SBIZ 231500Z 29005KT 9999 FEW016 BKN025 31/22 Q1013
Loading
Personal Weather Stations






























Interactive Weather Map
Tropical Storm Tracking
New forecast layout! Learn more

10-Day Weather Forecast

Advertisements
Track Severe Weather on mobile